Absecon, New Jersey
Current Conditions -  °F | °C
As of 2:54 AM on Friday 28 Nov 2014 (Local Time) from KACY Reporting Station
Clear Clear  
Wind Chill: 21°   Ceiling: Unl
Heat Index: 28°   Visibility: 9mi
Dew Point: 25°   Wind: 7mph
Humidity: 88%   Direction: 300°WNW
Pressure: 30.12"   Gusts: NA
Location:  39.43°N, 74.51°W
Report Text: KACY 280754Z AUTO 30006KT 9SM CLR M02/M04 A3012 RMK AO2 SLP200 T10221039 TSNO
Loading
Personal Weather Stations






























Interactive Weather Map New forecast layout! Learn more

10-Day Weather Forecast

Advertisements
Track Severe Weather on mobile